Terminal Aerodrome Forecast
Issued by NWS

Home | Current Version | Previous Version | Text Only | Print | Product List | Glossary On
Versions: 1 2 3 4 5 6 7 8 9 10 11 12 13 14 15 16 17 18
000
FTUS46 KMTR 252338
TAFSTS
TAF
KSTS 252338Z 2600/2624 26008KT P6SM VCSH BKN026 BKN030 OVC040
     FM260500 VRB03KT P6SM BKN025 BKN030 OVC040
     FM261700 32007KT P6SM SCT030 BKN050
     FM262100 20009KT P6SM SCT030 BKN050=

USA.gov is the U.S. government's official web portal to all federal, state and local government web resources and services.